createdAt,value
2018-05-15T00:01:53.796Z,17.68
2018-05-15T00:06:48.929Z,17.49
2018-05-15T00:11:44.969Z,17.52
2018-05-15T00:16:41.876Z,17.34
2018-05-15T00:21:37.183Z,17.14
2018-05-15T00:26:33.146Z,17.09
2018-05-15T00:31:28.994Z,17.08
2018-05-15T00:36:24.950Z,17.02
2018-05-15T00:41:20.707Z,16.89
2018-05-15T00:46:16.595Z,16.76
2018-05-15T00:51:12.626Z,16.79
2018-05-15T00:56:10.009Z,16.81
2018-05-15T01:01:05.598Z,16.84
2018-05-15T01:06:01.369Z,16.84
2018-05-15T01:10:57.276Z,16.89
2018-05-15T01:15:53.081Z,16.74
2018-05-15T01:20:48.925Z,16.68
2018-05-15T01:25:45.984Z,16.57
2018-05-15T01:30:41.480Z,16.66
2018-05-15T01:35:37.951Z,16.65
2018-05-15T01:40:33.960Z,16.65
2018-05-15T01:45:29.418Z,16.51
2018-05-15T01:50:25.210Z,16.50
2018-05-15T01:55:22.302Z,16.26
2018-05-15T02:00:17.815Z,16.35
2018-05-15T02:05:13.678Z,16.29
2018-05-15T02:10:09.498Z,16.21
2018-05-15T02:15:05.321Z,16.21
2018-05-15T02:20:01.084Z,16.13
2018-05-15T02:24:57.240Z,16.10
2018-05-15T02:29:53.781Z,16.02
2018-05-15T02:34:50.450Z,16.02
2018-05-15T02:39:47.055Z,15.88
2018-05-15T02:44:42.422Z,15.92
2018-05-15T02:49:38.348Z,15.72
2018-05-15T02:54:34.202Z,15.72
2018-05-15T02:59:30.185Z,15.52
2018-05-15T03:04:26.037Z,15.35
2018-05-15T03:09:21.849Z,15.33
2018-05-15T03:14:17.402Z,15.19
2018-05-15T03:19:14.179Z,15.27
2018-05-15T03:24:10.944Z,15.14
2018-05-15T03:29:06.315Z,15.00
2018-05-15T03:34:03.330Z,14.88
2018-05-15T03:38:58.813Z,14.89
2018-05-15T03:43:54.535Z,14.91
2018-05-15T03:48:50.610Z,14.84
2018-05-15T03:53:47.370Z,14.79
2018-05-15T03:58:42.992Z,14.73
2018-05-15T04:03:38.621Z,14.68
2018-05-15T04:08:34.353Z,14.79
2018-05-15T04:13:31.136Z,14.68
2018-05-15T04:18:27.993Z,14.70
2018-05-15T04:23:24.061Z,15.28
2018-05-15T04:28:20.352Z,15.80
2018-05-15T04:33:17.804Z,16.05
2018-05-15T04:38:13.878Z,16.36
2018-05-15T04:43:10.683Z,16.68
2018-05-15T04:48:07.096Z,17.14
2018-05-15T04:53:02.993Z,16.24
2018-05-15T04:57:59.486Z,15.98
2018-05-15T05:02:55.015Z,16.31
2018-05-15T05:07:51.775Z,16.56
2018-05-15T05:12:47.829Z,16.49
2018-05-15T05:17:43.844Z,16.49
2018-05-15T05:22:40.696Z,16.66
2018-05-15T05:27:37.197Z,16.74
2018-05-15T05:32:32.597Z,16.81
2018-05-15T05:37:28.892Z,16.87
2018-05-15T05:42:24.997Z,17.22
2018-05-15T05:47:27.557Z,17.52
2018-05-15T05:52:21.836Z,17.56
2018-05-15T05:57:18.341Z,17.57
2018-05-15T06:02:15.082Z,17.65
2018-05-15T06:07:10.575Z,17.70
2018-05-15T06:12:06.286Z,17.72
2018-05-15T06:17:02.650Z,17.89
2018-05-15T06:21:59.173Z,17.94
2018-05-15T06:26:54.749Z,17.79
2018-05-15T06:31:50.599Z,17.95
2018-05-15T06:36:46.795Z,18.13
2018-05-15T06:41:43.003Z,18.37
2018-05-15T06:46:39.813Z,18.35
2018-05-15T06:51:35.328Z,18.41
2018-05-15T06:56:31.586Z,18.66
2018-05-15T07:01:27.543Z,18.47
2018-05-15T07:06:23.926Z,18.62
2018-05-15T07:11:20.967Z,18.75
2018-05-15T07:16:16.993Z,18.90
2018-05-15T07:21:12.732Z,18.93
2018-05-15T07:26:08.639Z,19.16
2018-05-15T07:31:05.493Z,19.45
2018-05-15T07:36:02.384Z,19.49
2018-05-15T07:40:57.677Z,19.67
2018-05-15T07:45:53.791Z,20.29
2018-05-15T07:50:51.956Z,21.15
2018-05-15T07:55:51.135Z,22.43
2018-05-15T08:00:50.215Z,23.50
2018-05-15T08:05:47.528Z,23.63
2018-05-15T08:10:45.576Z,25.17
2018-05-15T08:15:42.687Z,26.48
2018-05-15T08:20:39.610Z,25.38
2018-05-15T08:25:36.520Z,24.69
2018-05-15T08:30:32.137Z,24.45
2018-05-15T08:35:28.094Z,24.80
2018-05-15T08:40:24.637Z,26.53
2018-05-15T08:45:22.253Z,24.48
2018-05-15T08:50:17.928Z,24.55
2018-05-15T08:55:13.141Z,25.88
2018-05-15T09:00:09.638Z,25.54
2018-05-15T09:05:06.180Z,27.30
2018-05-15T09:10:03.039Z,26.26
2018-05-15T09:15:00.042Z,25.44
2018-05-15T09:19:56.702Z,26.31
2018-05-15T09:24:54.294Z,27.49
2018-05-15T09:29:52.168Z,28.62
2018-05-15T09:34:48.762Z,28.66
2018-05-15T09:39:45.818Z,27.75
2018-05-15T09:44:41.461Z,26.75
2018-05-15T09:49:38.335Z,27.63
2018-05-15T09:54:35.485Z,26.96
2018-05-15T09:59:32.304Z,27.87
2018-05-15T10:04:29.430Z,26.48
2018-05-15T10:09:24.888Z,27.15
2018-05-15T10:14:22.519Z,26.80
2018-05-15T10:19:18.052Z,27.35
2018-05-15T10:24:14.157Z,25.77
2018-05-15T10:29:09.847Z,26.68
2018-05-15T10:34:05.881Z,25.31
2018-05-15T10:39:01.762Z,25.07
2018-05-15T10:43:57.486Z,24.30
2018-05-15T10:48:54.186Z,25.22
2018-05-15T10:53:50.479Z,25.68
2018-05-15T10:58:46.829Z,26.33
2018-05-15T11:03:44.239Z,26.31
2018-05-15T11:08:40.618Z,26.59
2018-05-15T11:13:38.136Z,25.81
2018-05-15T11:18:34.812Z,25.07
2018-05-15T11:23:30.048Z,25.06
2018-05-15T11:28:28.534Z,26.74
2018-05-15T11:33:25.870Z,28.32
2018-05-15T11:38:24.269Z,27.17
2018-05-15T11:43:20.718Z,26.56
2018-05-15T11:48:17.283Z,25.53
2018-05-15T11:53:13.255Z,25.43
2018-05-15T11:58:09.958Z,25.40
2018-05-15T12:03:05.731Z,25.95
2018-05-15T12:08:02.332Z,26.81
2018-05-15T12:12:58.305Z,26.23
2018-05-15T12:17:54.725Z,28.75
2018-05-15T12:22:52.469Z,28.08
2018-05-15T12:27:49.397Z,27.92
2018-05-15T12:32:45.079Z,26.92
2018-05-15T12:37:39.989Z,26.78
2018-05-15T12:42:35.330Z,26.59
2018-05-15T12:47:30.914Z,26.09
2018-05-15T12:52:27.060Z,25.59
2018-05-15T12:57:21.371Z,26.47
2018-05-15T13:02:18.768Z,26.68
2018-05-15T13:07:14.781Z,25.88
2018-05-15T13:12:10.177Z,26.52
2018-05-15T13:17:06.479Z,27.32
2018-05-15T13:22:02.640Z,26.06
2018-05-15T13:26:59.794Z,25.65
2018-05-15T13:31:54.846Z,27.15
2018-05-15T13:36:50.947Z,27.00
2018-05-15T13:41:47.076Z,26.06
2018-05-15T13:46:42.728Z,26.59
2018-05-15T13:51:40.380Z,27.40
2018-05-15T13:56:36.096Z,26.16
2018-05-15T14:01:31.517Z,25.59
2018-05-15T14:06:28.646Z,25.66
2018-05-15T14:11:24.043Z,25.29
2018-05-15T14:16:19.293Z,24.63
2018-05-15T14:21:14.022Z,24.21
2018-05-15T14:26:10.170Z,24.16
2018-05-15T14:31:05.388Z,23.96
2018-05-15T14:36:00.943Z,23.96
2018-05-15T14:40:57.731Z,24.20
2018-05-15T14:45:54.194Z,24.03
2018-05-15T14:50:49.612Z,24.16
2018-05-15T14:55:45.536Z,24.14
2018-05-15T15:00:42.354Z,23.92
2018-05-15T15:05:38.101Z,23.96
2018-05-15T15:10:35.067Z,23.98
2018-05-15T15:15:30.685Z,24.02
2018-05-15T15:20:27.022Z,24.17
2018-05-15T15:25:22.994Z,24.36
2018-05-15T15:30:19.138Z,24.20
2018-05-15T15:35:15.282Z,24.05
2018-05-15T15:40:11.215Z,24.16
2018-05-15T15:45:07.790Z,24.24
2018-05-15T15:50:03.656Z,24.42
2018-05-15T15:55:00.599Z,24.18
2018-05-15T15:59:57.154Z,24.29
2018-05-15T16:04:53.815Z,24.20
2018-05-15T16:09:49.593Z,24.33
2018-05-15T16:14:45.390Z,23.91
2018-05-15T16:19:41.256Z,23.95
2018-05-15T16:24:37.041Z,23.84
2018-05-15T16:29:32.893Z,23.99
2018-05-15T16:34:28.805Z,23.73
2018-05-15T16:39:25.839Z,23.71
2018-05-15T16:44:22.701Z,23.61
2018-05-15T16:49:18.615Z,23.63
2018-05-15T16:54:14.434Z,23.63
2018-05-15T16:59:10.390Z,23.48
2018-05-15T17:04:06.171Z,23.34
2018-05-15T17:09:02.078Z,23.48
2018-05-15T17:13:58.187Z,23.28
2018-05-15T17:18:55.096Z,23.24
2018-05-15T17:23:50.758Z,23.23
2018-05-15T17:28:46.815Z,23.25
2018-05-15T17:33:42.935Z,23.24
2018-05-15T17:38:40.276Z,23.23
2018-05-15T17:43:36.059Z,23.34
2018-05-15T17:48:32.192Z,23.23
2018-05-15T17:53:28.050Z,23.25
2018-05-15T17:58:25.312Z,23.39
2018-05-15T18:03:20.668Z,23.28
2018-05-15T18:08:16.577Z,23.23
2018-05-15T18:13:12.479Z,23.20
2018-05-15T18:18:08.208Z,22.99
2018-05-15T18:23:04.101Z,23.02
2018-05-15T18:27:59.830Z,22.85
2018-05-15T18:32:55.607Z,22.87
2018-05-15T18:37:51.463Z,22.69
2018-05-15T18:42:47.233Z,22.54
2018-05-15T18:47:42.967Z,22.44
2018-05-15T18:52:38.852Z,22.28
2018-05-15T18:57:34.712Z,22.22
2018-05-15T19:02:30.576Z,22.29
2018-05-15T19:07:26.367Z,22.18
2018-05-15T19:12:22.406Z,22.25
2018-05-15T19:17:18.133Z,22.14
2018-05-15T19:22:13.945Z,21.92
2018-05-15T19:27:09.748Z,21.80
2018-05-15T19:32:05.402Z,21.75
2018-05-15T19:37:01.125Z,21.73
2018-05-15T19:41:57.002Z,21.66
2018-05-15T19:46:52.875Z,21.55
2018-05-15T19:51:48.808Z,21.45
2018-05-15T19:56:44.609Z,21.46
2018-05-15T20:01:40.559Z,21.37
2018-05-15T20:06:36.545Z,21.32
2018-05-15T20:11:32.251Z,21.24
2018-05-15T20:16:28.240Z,21.12
2018-05-15T20:21:24.197Z,21.06
2018-05-15T20:26:20.801Z,21.02
2018-05-15T20:31:16.654Z,20.95
2018-05-15T20:36:12.450Z,20.81
2018-05-15T20:41:08.387Z,20.78
2018-05-15T20:46:04.651Z,20.72
2018-05-15T20:51:00.520Z,20.70
2018-05-15T20:55:56.340Z,20.63
2018-05-15T21:00:52.600Z,20.77
2018-05-15T21:05:48.468Z,20.63
2018-05-15T21:10:44.505Z,20.62
2018-05-15T21:15:40.447Z,20.63
2018-05-15T21:20:36.625Z,20.60
2018-05-15T21:25:32.391Z,20.36
2018-05-15T21:30:29.307Z,20.44
2018-05-15T21:35:25.815Z,20.36
2018-05-15T21:40:21.296Z,20.24
2018-05-15T21:45:17.099Z,20.21
2018-05-15T21:50:13.974Z,20.18
2018-05-15T21:55:10.880Z,20.06
2018-05-15T22:00:07.358Z,19.96
2018-05-15T22:05:04.009Z,19.92
2018-05-15T22:09:59.504Z,19.84
2018-05-15T22:14:55.327Z,19.81
2018-05-15T22:19:51.178Z,19.81
2018-05-15T22:24:47.812Z,19.76
2018-05-15T22:29:43.880Z,19.71
2018-05-15T22:34:39.687Z,19.63
2018-05-15T22:39:35.567Z,19.54
2018-05-15T22:44:31.841Z,19.33
2018-05-15T22:49:28.510Z,19.27
2018-05-15T22:54:24.896Z,19.31
2018-05-15T22:59:20.522Z,19.30
2018-05-15T23:04:16.233Z,19.16
2018-05-15T23:09:13.039Z,19.15
2018-05-15T23:14:09.698Z,19.14
2018-05-15T23:19:05.406Z,19.09
2018-05-15T23:24:01.198Z,19.12
2018-05-15T23:28:57.017Z,19.18
2018-05-15T23:33:52.745Z,19.16
2018-05-15T23:38:48.615Z,19.11
2018-05-15T23:43:45.439Z,19.02
2018-05-15T23:48:41.044Z,18.92
2018-05-15T23:53:37.890Z,18.92
2018-05-15T23:58:33.368Z,18.92
